Time;durP1;ratioP1;P1;durP2;ratioP2;P2;SDS_P1;SDS_P2;PMS_P1;PMS_P2;Temp;Humidity;BMP_temperature;BMP_pressure;BME280_temperature;BME280_humidity;BME280_pressure;Samples;Min_cycle;Max_cycle;Signal;HPM_P1;HPM_P2
2022/08/26 04:00:37;;;;;;;13.27;11.50;;;20.10;99.90;;;;;;5935510;23;20527;-76
2022/08/26 04:03:04;;;;;;;13.80;10.37;;;20.10;99.90;;;;;;4985906;28;20986;-76
2022/08/26 04:05:31;;;;;;;14.30;11.07;;;20.00;99.90;;;;;;4985827;28;20822;-76
2022/08/26 04:07:58;;;;;;;11.83;10.10;;;20.00;99.90;;;;;;4986442;28;20468;-76
2022/08/26 04:10:26;;;;;;;14.40;10.90;;;20.00;99.90;;;;;;4986204;28;20464;-76
2022/08/26 04:12:53;;;;;;;15.20;10.13;;;20.00;99.90;;;;;;4986134;28;20455;-76
2022/08/26 04:15:20;;;;;;;12.30;10.80;;;20.00;99.90;;;;;;4985668;28;20455;-76
2022/08/26 04:17:49;;;;;;;17.80;11.00;;;19.90;99.90;;;;;;4986408;28;20459;-76
2022/08/26 04:20:17;;;;;;;17.73;11.00;;;19.90;99.90;;;;;;4986056;28;20954;-76
2022/08/26 04:22:44;;;;;;;13.30;10.07;;;19.90;99.90;;;;;;4985956;28;20504;-76
2022/08/26 04:25:11;;;;;;;12.30;9.60;;;19.90;99.90;;;;;;4985493;28;20973;-76
2022/08/26 04:27:38;;;;;;;13.07;9.90;;;19.80;99.90;;;;;;4986005;28;20482;-76
2022/08/26 04:30:07;;;;;;;15.03;10.20;;;19.80;99.90;;;;;;4985735;28;20455;-76
2022/08/26 04:32:34;;;;;;;14.17;10.20;;;19.80;99.90;;;;;;4985603;28;20483;-76
2022/08/26 04:35:03;;;;;;;16.33;10.07;;;19.80;99.90;;;;;;4985456;28;20459;-76
2022/08/26 04:37:31;;;;;;;15.07;10.70;;;19.80;99.90;;;;;;4985948;28;20464;-76
2022/08/26 04:39:58;;;;;;;14.10;10.50;;;19.80;99.90;;;;;;4986176;28;20502;-76
2022/08/26 04:42:25;;;;;;;17.00;10.80;;;19.70;99.90;;;;;;4985872;28;20487;-76
2022/08/26 04:44:51;;;;;;;17.47;11.30;;;19.70;99.90;;;;;;4984837;28;20495;-75
2022/08/26 04:47:18;;;;;;;14.20;11.37;;;19.70;99.90;;;;;;4985891;28;20459;-75
2022/08/26 04:49:45;;;;;;;13.87;10.37;;;19.70;99.90;;;;;;4986070;28;20463;-76
2022/08/26 04:52:14;;;;;;;14.33;10.93;;;19.70;99.90;;;;;;4985693;28;20847;-75
2022/08/26 04:54:41;;;;;;;15.27;11.30;;;19.70;99.90;;;;;;4985292;28;20486;-76
2022/08/26 04:57:07;;;;;;;16.50;11.50;;;19.70;99.90;;;;;;4985428;28;20951;-76
2022/08/26 04:59:34;;;;;;;17.80;11.60;;;19.70;99.90;;;;;;4985910;28;20463;-76
2022/08/26 05:02:02;;;;;;;15.13;11.77;;;19.70;99.90;;;;;;4984640;28;20949;-76
2022/08/26 05:04:29;;;;;;;16.10;11.30;;;19.70;99.90;;;;;;4985161;28;20590;-76
2022/08/26 05:06:56;;;;;;;20.40;12.77;;;19.70;99.90;;;;;;4985538;28;20463;-76
2022/08/26 05:09:25;;;;;;;18.97;11.97;;;19.80;99.90;;;;;;4985603;28;20495;-76
2022/08/26 05:11:52;;;;;;;18.53;12.70;;;19.80;99.90;;;;;;4985259;28;20485;-76
2022/08/26 05:14:19;;;;;;;13.70;10.90;;;19.80;99.90;;;;;;4984811;28;20544;-76
2022/08/26 05:16:46;;;;;;;13.90;11.50;;;19.80;99.90;;;;;;4985638;28;20468;-76
2022/08/26 05:19:13;;;;;;;12.40;10.97;;;19.80;99.90;;;;;;4985558;28;20510;-76
2022/08/26 05:21:39;;;;;;;14.07;10.27;;;19.90;99.90;;;;;;4985820;28;20487;-76
2022/08/26 05:24:06;;;;;;;12.87;11.00;;;19.90;99.90;;;;;;4985099;28;20885;-76
2022/08/26 05:26:35;;;;;;;15.53;11.80;;;19.90;99.90;;;;;;4985921;28;20466;-76
2022/08/26 05:29:01;;;;;;;13.63;11.20;;;19.90;99.90;;;;;;4986007;28;20467;-76
2022/08/26 05:31:31;;;;;;;20.13;11.23;;;19.90;99.90;;;;;;4985813;28;20530;-76
2022/08/26 05:33:58;;;;;;;14.03;11.20;;;19.90;99.90;;;;;;4990149;28;20463;-81
2022/08/26 05:36:27;;;;;;;13.30;11.90;;;19.90;99.90;;;;;;4991646;28;20452;-81
2022/08/26 05:38:54;;;;;;;19.60;11.90;;;19.90;99.90;;;;;;4990858;28;20471;-66
2022/08/26 05:41:27;;;;;;;15.67;12.70;;;20.00;99.90;;;;;;4985529;28;20979;-66
2022/08/26 05:43:56;;;;;;;19.67;12.73;;;20.00;99.90;;;;;;4985632;28;20484;-69
2022/08/26 05:46:23;;;;;;;16.60;12.87;;;20.00;99.90;;;;;;4985602;28;20474;-69
2022/08/26 05:48:50;;;;;;;15.03;11.63;;;20.00;99.90;;;;;;4988029;28;20466;-69
2022/08/26 05:51:17;;;;;;;20.93;12.87;;;20.10;99.90;;;;;;4989163;28;20479;-69
2022/08/26 05:53:44;;;;;;;14.90;12.13;;;20.10;99.90;;;;;;4994492;28;20463;-81
2022/08/26 05:56:12;;;;;;;17.93;12.33;;;20.10;99.90;;;;;;4998083;28;20469;-83
2022/08/26 05:58:40;;;;;;;16.67;12.23;;;20.10;99.90;;;;;;4998817;28;20511;-81
2022/08/26 06:01:11;;;;;;;17.90;12.27;;;20.20;99.90;;;;;;4997680;28;20523;-81
2022/08/26 06:03:40;;;;;;;18.60;13.50;;;20.20;99.90;;;;;;4998314;28;20472;-81
2022/08/26 06:06:10;;;;;;;19.70;13.60;;;20.20;99.90;;;;;;4997897;28;20512;-81
2022/08/26 06:08:37;;;;;;;16.10;12.50;;;20.20;99.90;;;;;;4997801;28;20455;-81
2022/08/26 06:11:07;;;;;;;17.40;13.20;;;20.20;99.90;;;;;;4998876;28;20491;-83
2022/08/26 06:13:35;;;;;;;17.67;12.37;;;20.20;99.90;;;;;;4999096;28;20990;-82
2022/08/26 06:16:04;;;;;;;22.00;13.17;;;20.20;99.90;;;;;;4997403;28;20455;-81
2022/08/26 06:18:35;;;;;;;18.40;13.03;;;20.20;99.90;;;;;;4998346;28;20462;-82
2022/08/26 06:21:12;;;;;;;18.83;12.90;;;20.20;99.90;;;;;;4999242;28;20534;-81
2022/08/26 06:26:24;;;;;;;19.43;13.60;;;20.30;99.90;;;;;;4999015;28;20442;-82
2022/08/26 06:28:51;;;;;;;17.20;12.40;;;20.30;99.90;;;;;;5000403;28;20475;-82
2022/08/26 06:31:18;;;;;;;22.80;13.13;;;20.40;99.90;;;;;;4998719;28;20538;-82
2022/08/26 06:33:46;;;;;;;18.63;13.57;;;20.50;99.90;;;;;;4998549;28;20478;-85
2022/08/26 06:36:18;;;;;;;20.03;14.00;;;20.50;99.90;;;;;;5000355;28;20555;-82
2022/08/26 06:38:45;;;;;;;20.73;13.93;;;20.50;99.90;;;;;;4999843;28;20503;-82
2022/08/26 06:41:12;;;;;;;20.20;13.70;;;20.60;99.90;;;;;;4998832;28;20476;-82
2022/08/26 06:43:39;;;;;;;20.70;14.40;;;20.60;99.90;;;;;;4999283;28;20498;-82
2022/08/26 06:46:08;;;;;;;15.60;12.87;;;20.70;99.90;;;;;;4997196;28;20539;-82
2022/08/26 06:48:36;;;;;;;16.70;12.83;;;20.70;99.90;;;;;;4998494;28;20952;-81
2022/08/26 06:51:10;;;;;;;19.30;13.93;;;20.70;99.90;;;;;;4995437;28;20479;-83
2022/08/26 06:53:38;;;;;;;16.70;11.97;;;20.80;99.90;;;;;;4993563;28;20463;-82
2022/08/26 06:56:07;;;;;;;16.60;13.60;;;20.80;99.90;;;;;;4996725;28;20459;-83
2022/08/26 06:58:35;;;;;;;19.60;13.10;;;20.90;99.90;;;;;;4998848;28;20964;-82
2022/08/26 07:01:02;;;;;;;16.47;13.30;;;20.90;99.90;;;;;;4992844;28;20516;-72
2022/08/26 07:03:29;;;;;;;24.47;14.27;;;21.00;99.90;;;;;;4988071;28;20833;-73
2022/08/26 07:06:01;;;;;;;19.33;12.30;;;21.00;99.90;;;;;;4987432;28;20470;-72
2022/08/26 07:08:29;;;;;;;18.40;13.93;;;21.10;99.90;;;;;;4987811;28;20916;-73
2022/08/26 07:10:57;;;;;;;19.40;13.00;;;21.10;99.90;;;;;;4988075;28;20574;-73
2022/08/26 07:13:24;;;;;;;19.00;13.80;;;21.20;99.90;;;;;;4987828;28;20526;-73
2022/08/26 07:15:51;;;;;;;20.80;12.70;;;21.30;99.90;;;;;;4987152;28;20455;-73
2022/08/26 07:18:18;;;;;;;16.90;13.40;;;21.40;99.90;;;;;;4987829;28;20474;-73
2022/08/26 07:20:45;;;;;;;17.90;12.90;;;21.50;99.90;;;;;;4987683;28;20482;-73
2022/08/26 07:23:12;;;;;;;17.90;12.27;;;21.70;99.90;;;;;;4987457;28;21115;-72
2022/08/26 07:25:41;;;;;;;23.90;13.13;;;21.70;99.90;;;;;;4987143;28;20503;-72
2022/08/26 07:28:08;;;;;;;17.03;13.70;;;21.90;99.90;;;;;;4987637;28;20478;-73
2022/08/26 07:30:39;;;;;;;23.53;12.90;;;21.90;99.90;;;;;;4987891;28;20479;-73
2022/08/26 07:33:06;;;;;;;21.67;12.73;;;22.00;99.90;;;;;;4987502;28;20518;-73
2022/08/26 07:35:33;;;;;;;22.20;12.63;;;22.10;99.90;;;;;;4986826;28;20455;-74
2022/08/26 07:38:01;;;;;;;22.33;13.40;;;22.20;99.90;;;;;;4987361;28;20459;-73
2022/08/26 07:40:28;;;;;;;19.10;12.10;;;22.30;99.90;;;;;;4987335;28;20452;-73
2022/08/26 07:42:56;;;;;;;20.70;12.47;;;22.40;99.90;;;;;;4987728;28;20459;-73
2022/08/26 07:45:23;;;;;;;19.23;12.60;;;22.60;99.90;;;;;;4986601;28;21014;-73
2022/08/26 07:47:51;;;;;;;19.60;13.00;;;22.70;99.90;;;;;;4987106;28;20487;-73
2022/08/26 07:50:18;;;;;;;21.63;12.07;;;22.80;99.90;;;;;;4987157;28;20459;-73
2022/08/26 07:52:45;;;;;;;32.37;13.90;;;22.90;99.90;;;;;;4986915;28;21330;-72
2022/08/26 07:55:12;;;;;;;21.93;11.97;;;22.90;99.90;;;;;;4986266;28;20978;-74
2022/08/26 07:57:39;;;;;;;19.10;12.03;;;23.00;99.90;;;;;;4986830;28;20459;-74
2022/08/26 08:00:14;;;;;;;27.77;12.27;;;23.00;99.90;;;;;;4987340;28;20456;-73
2022/08/26 08:02:43;;;;;;;23.43;12.07;;;23.10;99.90;;;;;;4985882;28;21010;-74
2022/08/26 08:05:14;;;;;;;19.43;11.57;;;23.20;99.90;;;;;;4986306;28;20546;-73
2022/08/26 08:07:41;;;;;;;18.80;11.27;;;23.50;99.90;;;;;;4987392;28;20951;-67
2022/08/26 08:10:08;;;;;;;19.03;12.20;;;23.50;99.90;;;;;;4988332;28;20467;-72
2022/08/26 08:12:35;;;;;;;18.50;10.80;;;23.60;99.90;;;;;;4987694;28;20483;-69
2022/08/26 08:15:02;;;;;;;24.83;12.13;;;23.70;99.90;;;;;;4986029;28;20592;-68
2022/08/26 08:17:31;;;;;;;15.57;10.67;;;23.80;99.90;;;;;;4987409;28;20463;-70
2022/08/26 08:19:57;;;;;;;18.57;11.27;;;23.90;99.90;;;;;;4987178;28;20468;-71
2022/08/26 08:22:24;;;;;;;18.23;10.73;;;24.00;99.90;;;;;;4987178;28;20487;-71
2022/08/26 08:24:51;;;;;;;19.30;10.80;;;24.10;99.90;;;;;;4986664;28;20491;-72
2022/08/26 08:27:18;;;;;;;17.83;10.70;;;24.20;99.90;;;;;;4987629;28;20459;-72
2022/08/26 08:29:46;;;;;;;20.60;12.70;;;24.40;99.90;;;;;;4986696;28;20467;-72
2022/08/26 08:32:13;;;;;;;17.93;10.97;;;24.50;99.90;;;;;;4986992;28;20490;-72
2022/08/26 08:34:41;;;;;;;21.73;10.73;;;24.60;99.90;;;;;;4986516;28;20474;-72
2022/08/26 08:37:08;;;;;;;20.50;10.80;;;24.70;99.90;;;;;;4987138;28;20461;-72
2022/08/26 08:39:35;;;;;;;19.97;9.80;;;24.80;99.90;;;;;;4986409;28;20459;-73
2022/08/26 08:42:43;;;;;;;29.77;10.37;;;24.90;99.90;;;;;;4986469;28;20487;-73
2022/08/26 08:45:14;;;;;;;19.93;10.93;;;24.90;99.90;;;;;;4985560;28;21011;-73
2022/08/26 08:47:46;;;;;;;25.73;9.83;;;25.00;99.90;;;;;;4986458;28;20507;-73
2022/08/26 08:50:22;;;;;;;15.63;10.33;;;25.10;99.90;;;;;;4986506;28;20455;-73
2022/08/26 08:52:54;;;;;;;19.27;11.00;;;25.20;99.90;;;;;;4986065;28;20920;-73
2022/08/26 08:55:25;;;;;;;14.63;9.50;;;25.40;99.90;;;;;;4985789;28;20466;-73
2022/08/26 08:58:02;;;;;;;22.27;10.97;;;25.60;99.90;;;;;;4986471;28;20443;-73
2022/08/26 09:00:38;;;;;;;18.47;10.07;;;25.70;99.90;;;;;;4986092;28;20458;-72
2022/08/26 09:03:12;;;;;;;14.77;10.50;;;25.90;99.90;;;;;;4986047;28;20444;-73
2022/08/26 09:05:43;;;;;;;16.67;10.27;;;26.00;99.90;;;;;;4985709;28;20503;-73
2022/08/26 09:08:15;;;;;;;19.97;9.03;;;26.10;99.90;;;;;;4987484;28;20491;-85
2022/08/26 09:10:47;;;;;;;21.00;10.30;;;26.10;99.90;;;;;;4993378;28;20480;-85
2022/08/26 09:13:17;;;;;;;15.90;10.00;;;26.20;99.90;;;;;;4991388;28;20454;-85
2022/08/26 09:15:53;;;;;;;17.83;9.70;;;26.30;99.90;;;;;;4989809;28;21433;-87
2022/08/26 09:18:31;;;;;;;13.80;8.97;;;26.40;99.90;;;;;;4989920;28;20538;-88
2022/08/26 09:21:03;;;;;;;15.30;9.53;;;26.60;99.90;;;;;;4988694;28;20519;-85
2022/08/26 09:23:30;;;;;;;16.77;8.73;;;26.80;99.90;;;;;;4990287;28;20773;-84
2022/08/26 09:26:00;;;;;;;16.50;8.57;;;26.80;99.90;;;;;;4991471;28;20594;-87
2022/08/26 09:28:29;;;;;;;16.87;9.43;;;27.00;99.90;;;;;;4992670;28;20455;-88
2022/08/26 09:31:03;;;;;;;24.60;9.50;;;27.20;99.90;;;;;;4992018;28;20482;-88
2022/08/26 09:33:32;;;;;;;20.63;9.53;;;27.40;99.90;;;;;;4993185;28;20424;-86
2022/08/26 09:36:17;;;;;;;16.50;8.97;;;27.50;99.90;;;;;;4991447;28;20470;-85
2022/08/26 09:38:45;;;;;;;20.73;10.00;;;27.60;99.90;;;;;;4992435;28;20440;-85
2022/08/26 09:41:24;;;;;;;16.60;9.00;;;27.70;99.90;;;;;;4991420;28;20492;-86
2022/08/26 09:44:13;;;;;;;18.43;8.57;;;27.80;99.90;;;;;;4991653;28;20458;-87
2022/08/26 09:46:45;;;;;;;19.53;9.07;;;27.90;99.90;;;;;;4992265;28;20491;-85
2022/08/26 09:49:25;;;;;;;19.07;9.57;;;28.00;99.90;;;;;;4991545;28;20452;-87
2022/08/26 09:52:10;;;;;;;16.40;8.63;;;28.20;99.90;;;;;;4990861;28;20491;-86
2022/08/26 09:54:38;;;;;;;17.00;8.50;;;28.30;99.90;;;;;;4990714;28;20526;-85
2022/08/26 09:57:27;;;;;;;18.40;8.67;;;28.40;99.90;;;;;;4994606;28;21020;-86
2022/08/26 09:59:54;;;;;;;16.03;9.80;;;28.60;99.90;;;;;;4992091;28;20550;-82
2022/08/26 10:02:40;;;;;;;18.87;8.57;;;28.80;99.90;;;;;;4991335;28;20869;-83
2022/08/26 10:05:15;;;;;;;19.70;9.50;;;28.80;99.90;;;;;;4990780;28;20487;-83
2022/08/26 10:07:47;;;;;;;16.20;8.47;;;28.90;99.90;;;;;;4990822;28;20970;-83
2022/08/26 10:10:20;;;;;;;13.30;5.90;;;28.80;99.90;;;;;;4990793;28;20493;-85
2022/08/26 10:12:58;;;;;;;10.87;5.67;;;28.70;99.90;;;;;;4991025;28;20490;-83
2022/08/26 10:15:27;;;;;;;6.93;4.93;;;28.50;99.90;;;;;;4990763;28;20861;-85
2022/08/26 10:18:01;;;;;;;8.97;5.43;;;28.40;99.90;;;;;;4992673;28;20516;-82
2022/08/26 10:20:32;;;;;;;12.10;5.90;;;28.20;99.90;;;;;;4992414;28;20458;-71
2022/08/26 10:23:05;;;;;;;16.10;7.07;;;28.00;99.90;;;;;;4988870;28;20436;-71
2022/08/26 10:25:34;;;;;;;19.13;7.10;;;28.00;99.90;;;;;;4987627;28;20491;-71
2022/08/26 10:28:08;;;;;;;11.63;6.33;;;28.00;99.90;;;;;;4988427;28;21143;-70
2022/08/26 10:30:40;;;;;;;14.30;6.30;;;28.00;99.90;;;;;;4988574;28;20469;-70
2022/08/26 10:33:09;;;;;;;11.20;7.37;;;28.00;99.90;;;;;;4988677;28;20451;-70
2022/08/26 10:35:42;;;;;;;10.37;6.80;;;28.00;99.90;;;;;;4988004;28;20547;-70
2022/08/26 10:38:14;;;;;;;11.70;7.03;;;27.90;99.90;;;;;;4988362;28;20465;-70
2022/08/26 10:40:49;;;;;;;13.93;7.33;;;27.80;99.90;;;;;;4988145;28;20475;-70
2022/08/26 10:43:21;;;;;;;11.20;6.37;;;27.70;99.90;;;;;;4988170;28;20998;-70
2022/08/26 10:45:51;;;;;;;13.53;6.80;;;27.60;99.90;;;;;;4987624;28;20867;-70
2022/08/26 10:48:23;;;;;;;13.82;7.00;;;27.60;99.90;;;;;;4986993;28;20448;-70
2022/08/26 10:50:51;;;;;;;20.07;7.17;;;27.60;99.90;;;;;;4988081;28;20734;-70
2022/08/26 10:53:27;;;;;;;17.10;7.00;;;27.60;99.90;;;;;;4988285;28;20464;-70
2022/08/26 10:56:01;;;;;;;13.80;7.40;;;27.50;99.90;;;;;;4987478;28;20455;-70
2022/08/26 10:58:38;;;;;;;8.90;6.20;;;27.40;99.90;;;;;;4988431;28;20550;-70
2022/08/26 11:04:02;;;;;;;9.27;7.10;;;27.20;99.90;;;;;;4987916;28;20503;-70
2022/08/26 11:06:31;;;;;;;18.60;7.03;;;27.10;99.90;;;;;;4987469;28;21049;-71
2022/08/26 11:09:01;;;;;;;18.93;9.40;;;27.00;99.90;;;;;;4987814;28;20459;-70
2022/08/26 11:11:56;;;;;;;18.60;8.70;;;27.10;99.90;;;;;;4987423;28;20486;-70
2022/08/26 11:14:36;;;;;;;17.00;8.23;;;27.20;99.90;;;;;;4952440;28;20965;-70
2022/08/26 11:17:04;;;;;;;9.60;6.27;;;27.10;99.90;;;;;;4987909;28;20490;-70
2022/08/26 11:19:59;;;;;;;13.57;7.27;;;27.10;99.90;;;;;;4987605;28;20567;-70
2022/08/26 11:22:28;;;;;;;11.40;6.90;;;27.10;99.90;;;;;;4985619;28;20487;-70
2022/08/26 11:25:13;;;;;;;13.23;7.50;;;27.10;99.90;;;;;;4986597;28;20506;-70
2022/08/26 11:28:04;;;;;;;7.97;6.30;;;27.10;99.90;;;;;;4987624;28;20459;-70
2022/08/26 11:30:48;;;;;;;12.20;7.23;;;27.10;99.90;;;;;;4987535;28;20448;-70
2022/08/26 11:33:51;;;;;;;18.43;9.00;;;27.10;99.90;;;;;;4985101;28;20475;-70
2022/08/26 11:36:54;;;;;;;14.30;6.50;;;27.10;99.90;;;;;;4984939;28;20440;-70
2022/08/26 11:39:24;;;;;;;49.43;16.57;;;27.10;99.90;;;;;;4984827;28;20454;-70
2022/08/26 11:41:58;;;;;;;16.90;6.73;;;27.10;99.90;;;;;;4987275;28;20480;-70
2022/08/26 11:44:28;;;;;;;11.70;7.63;;;27.20;99.90;;;;;;4986425;28;20976;-70
2022/08/26 11:46:58;;;;;;;46.13;19.00;;;27.10;99.90;;;;;;4986712;28;20506;-70
2022/08/26 11:49:27;;;;;;;15.30;6.43;;;27.20;99.90;;;;;;4987340;28;20464;-71
2022/08/26 11:52:07;;;;;;;14.43;7.30;;;27.30;99.90;;;;;;4986599;28;20495;-71
2022/08/26 11:54:34;;;;;;;21.47;9.70;;;27.30;99.90;;;;;;4986577;28;20477;-71
2022/08/26 11:57:04;;;;;;;14.60;6.23;;;27.40;99.90;;;;;;4987073;28;20466;-71
2022/08/26 11:59:37;;;;;;;15.50;6.70;;;27.50;99.90;;;;;;4986916;28;20837;-71
2022/08/26 12:02:10;;;;;;;31.67;13.20;;;27.60;99.90;;;;;;4986657;28;20579;-71
2022/08/26 12:04:41;;;;;;;9.47;5.60;;;27.60;99.90;;;;;;4986270;28;20486;-71
2022/08/26 12:07:09;;;;;;;9.53;5.80;;;27.80;99.90;;;;;;4986827;28;20476;-71
2022/08/26 12:09:49;;;;;;;10.83;6.17;;;27.90;99.90;;;;;;4986967;28;20456;-71
2022/08/26 12:12:24;;;;;;;16.77;7.20;;;28.10;99.90;;;;;;4986418;28;21019;-71
2022/08/26 12:15:07;;;;;;;8.87;5.50;;;28.20;99.90;;;;;;4986007;28;20463;-71
2022/08/26 12:17:33;;;;;;;13.73;6.30;;;28.40;99.90;;;;;;4986518;28;20487;-71
2022/08/26 12:20:00;;;;;;;11.73;6.47;;;28.50;99.90;;;;;;4986677;28;20486;-71
2022/08/26 12:22:29;;;;;;;13.13;6.90;;;28.60;99.90;;;;;;4986742;28;20893;-71
2022/08/26 12:24:59;;;;;;;10.87;6.60;;;28.70;99.90;;;;;;4985891;28;20467;-72
2022/08/26 12:27:29;;;;;;;12.80;7.10;;;28.80;99.90;;;;;;4986642;28;20459;-71
2022/08/26 12:30:06;;;;;;;13.73;8.10;;;28.80;99.90;;;;;;4986335;28;20460;-71
2022/08/26 12:32:34;;;;;;;17.33;7.70;;;28.90;99.90;;;;;;4986291;28;20471;-71
2022/08/26 12:35:02;;;;;;;17.20;8.37;;;28.80;99.90;;;;;;4985729;28;21307;-71
2022/08/26 12:37:32;;;;;;;12.87;8.00;;;28.90;99.90;;;;;;4985980;28;20503;-71
2022/08/26 12:40:41;;;;;;;17.03;8.40;;;28.90;99.90;;;;;;4986452;28;20463;-71
2022/08/26 12:43:14;;;;;;;23.00;7.87;;;28.80;99.90;;;;;;4951418;28;20533;-71
2022/08/26 12:45:43;;;;;;;17.80;8.23;;;28.80;99.90;;;;;;4985845;28;20541;-71
2022/08/26 12:48:12;;;;;;;10.13;6.90;;;28.80;99.90;;;;;;4985889;28;20477;-71
2022/08/26 12:50:46;;;;;;;18.73;8.50;;;28.80;99.90;;;;;;4985983;28;20483;-71
2022/08/26 12:53:21;;;;;;;16.53;7.93;;;28.80;99.90;;;;;;4986445;28;20443;-71
2022/08/26 12:55:49;;;;;;;12.63;7.43;;;28.70;99.90;;;;;;4985650;28;20470;-72
2022/08/26 12:58:30;;;;;;;16.37;8.30;;;28.70;99.90;;;;;;4991022;28;20977;-71
2022/08/26 13:00:58;;;;;;;15.30;8.03;;;28.70;99.90;;;;;;4992732;28;20523;-71
2022/08/26 13:03:44;;;;;;;15.07;7.13;;;28.70;99.90;;;;;;4992477;28;20582;-71
2022/08/26 13:06:13;;;;;;;14.30;7.97;;;28.70;99.90;;;;;;4991487;28;20987;-72
2022/08/26 13:08:42;;;;;;;12.80;7.20;;;28.70;99.90;;;;;;4992297;28;20870;-71
2022/08/26 13:11:12;;;;;;;13.90;7.00;;;28.70;99.90;;;;;;4992371;28;20506;-71
2022/08/26 13:13:40;;;;;;;14.83;7.57;;;28.70;99.90;;;;;;4992606;28;20458;-72
2022/08/26 13:16:07;;;;;;;14.93;8.03;;;28.70;99.90;;;;;;4992113;28;20456;-71
2022/08/26 13:18:34;;;;;;;18.50;8.07;;;28.70;99.90;;;;;;4992642;28;20467;-71
2022/08/26 13:21:07;;;;;;;10.27;6.77;;;28.60;99.90;;;;;;4992520;28;20479;-70
2022/08/26 13:23:34;;;;;;;12.23;6.30;;;28.60;99.90;;;;;;4992599;28;20579;-70
2022/08/26 13:26:01;;;;;;;9.03;6.40;;;28.60;99.90;;;;;;4991651;28;21002;-70
2022/08/26 13:28:28;;;;;;;13.10;7.10;;;28.60;99.90;;;;;;4992462;28;20465;-71
2022/08/26 13:30:57;;;;;;;14.40;7.30;;;28.60;99.90;;;;;;4992177;28;20471;-71
2022/08/26 13:33:24;;;;;;;10.17;6.90;;;28.50;99.90;;;;;;4992285;28;20467;-71
2022/08/26 13:35:50;;;;;;;13.33;7.43;;;28.50;99.90;;;;;;4991520;28;20956;-72
2022/08/26 13:38:17;;;;;;;13.20;7.13;;;28.50;99.90;;;;;;4992218;28;20463;-71
2022/08/26 13:40:44;;;;;;;15.10;7.50;;;28.50;99.90;;;;;;4992427;28;20498;-72
2022/08/26 13:43:11;;;;;;;14.10;7.10;;;28.50;99.90;;;;;;4992410;28;20463;-71
2022/08/26 13:45:38;;;;;;;18.60;7.73;;;28.50;99.90;;;;;;4991299;28;20461;-67
2022/08/26 13:48:08;;;;;;;11.63;7.27;;;28.50;99.90;;;;;;4992201;28;21300;-66
2022/08/26 13:50:35;;;;;;;9.53;6.80;;;28.50;99.90;;;;;;4992057;28;20483;-67
2022/08/26 13:53:02;;;;;;;21.60;7.30;;;28.50;99.90;;;;;;4992083;28;20455;-71
2022/08/26 13:55:29;;;;;;;13.90;6.83;;;28.50;99.90;;;;;;4991370;28;20466;-71
2022/08/26 13:57:56;;;;;;;12.23;7.10;;;28.50;99.90;;;;;;4991496;28;20831;-72
2022/08/26 14:00:22;;;;;;;14.33;7.47;;;28.50;99.90;;;;;;4992244;28;20816;-72
2022/08/26 14:02:49;;;;;;;17.70;7.67;;;28.50;99.90;;;;;;4991812;28;20455;-72
2022/08/26 14:05:18;;;;;;;12.63;7.83;;;28.50;99.90;;;;;;4990876;28;20451;-72
2022/08/26 14:07:45;;;;;;;12.47;7.03;;;28.50;99.90;;;;;;4991079;28;20880;-72
2022/08/26 14:10:12;;;;;;;12.97;7.90;;;28.50;99.90;;;;;;4988305;28;20485;-72
2022/08/26 14:12:39;;;;;;;16.90;7.60;;;28.50;99.90;;;;;;4989367;28;20605;-72
2022/08/26 14:15:07;;;;;;;21.10;8.00;;;28.50;99.90;;;;;;4988287;28;20456;-72
2022/08/26 14:17:34;;;;;;;14.03;7.63;;;28.60;99.90;;;;;;4988521;28;20458;-72
2022/08/26 14:20:01;;;;;;;13.93;7.03;;;28.50;99.90;;;;;;4989143;28;20555;-70
2022/08/26 14:22:30;;;;;;;13.20;7.30;;;28.50;99.90;;;;;;4988893;28;20483;-72
2022/08/26 14:24:57;;;;;;;14.53;7.93;;;28.50;99.90;;;;;;4988150;28;20522;-72
2022/08/26 14:27:24;;;;;;;16.60;7.30;;;28.60;99.90;;;;;;4988574;28;20495;-71
2022/08/26 14:29:51;;;;;;;18.53;8.90;;;28.60;99.90;;;;;;4988460;28;20468;-72
2022/08/26 14:32:26;;;;;;;13.77;8.07;;;28.60;99.90;;;;;;4988302;28;20478;-73
2022/08/26 14:34:54;;;;;;;15.27;7.43;;;28.50;99.90;;;;;;4988161;28;20490;-73
2022/08/26 14:37:22;;;;;;;13.90;7.50;;;28.60;99.90;;;;;;4988638;28;20451;-73
2022/08/26 14:39:51;;;;;;;16.60;7.47;;;28.60;99.90;;;;;;4988273;28;20467;-73
2022/08/26 14:42:22;;;;;;;15.73;7.77;;;28.60;99.90;;;;;;4988523;28;20522;-73
2022/08/26 14:44:54;;;;;;;12.50;7.93;;;28.60;99.90;;;;;;4987841;28;20523;-73
2022/08/26 14:47:21;;;;;;;16.40;7.67;;;28.60;99.90;;;;;;4988149;28;20637;-73
2022/08/26 14:49:47;;;;;;;14.60;7.87;;;28.70;99.90;;;;;;4988571;28;20486;-73
2022/08/26 14:52:14;;;;;;;11.90;8.07;;;28.80;99.90;;;;;;4987987;28;21242;-73
2022/08/26 14:54:40;;;;;;;13.30;7.83;;;28.80;99.90;;;;;;4987635;28;20801;-73
2022/08/26 14:57:11;;;;;;;11.43;8.23;;;28.80;99.90;;;;;;4986880;28;20458;-72
2022/08/26 14:59:40;;;;;;;17.83;8.10;;;28.90;99.90;;;;;;4988075;28;20587;-72
2022/08/26 15:02:09;;;;;;;14.50;8.93;;;28.90;99.90;;;;;;4987511;28;20487;-72
2022/08/26 15:04:36;;;;;;;14.13;7.00;;;29.00;99.90;;;;;;4987465;28;20463;-72
2022/08/26 15:07:04;;;;;;;15.10;8.00;;;29.10;99.90;;;;;;4987191;28;20499;-72
2022/08/26 15:09:34;;;;;;;17.87;7.63;;;29.20;99.90;;;;;;4987927;28;20451;-72
2022/08/26 15:12:01;;;;;;;19.50;8.17;;;29.40;99.90;;;;;;4987768;28;20490;-72
2022/08/26 15:14:30;;;;;;;16.10;7.43;;;29.40;99.90;;;;;;4987376;28;20462;-72
2022/08/26 15:16:57;;;;;;;16.73;8.43;;;29.50;99.90;;;;;;4987845;28;20483;-72
2022/08/26 15:19:25;;;;;;;18.10;7.33;;;29.60;99.90;;;;;;4987731;28;20459;-72
2022/08/26 15:21:52;;;;;;;9.43;7.13;;;29.70;99.90;;;;;;4986693;28;20484;-72
2022/08/26 15:24:21;;;;;;;14.97;7.87;;;29.70;99.90;;;;;;4986665;28;21159;-72
2022/08/26 15:26:49;;;;;;;14.33;7.37;;;29.80;99.90;;;;;;4987507;28;20495;-71
2022/08/26 15:29:16;;;;;;;15.27;7.63;;;29.80;99.90;;;;;;4987193;28;20463;-72
2022/08/26 15:31:44;;;;;;;20.40;8.00;;;29.90;99.90;;;;;;4987485;28;20479;-72
2022/08/26 15:34:12;;;;;;;12.80;8.03;;;29.80;99.90;;;;;;4986788;28;20459;-72
2022/08/26 15:36:41;;;;;;;17.37;7.90;;;29.80;99.90;;;;;;4990027;28;20539;-85
2022/08/26 15:39:10;;;;;;;12.10;8.00;;;29.70;99.90;;;;;;4993783;28;20452;-84
2022/08/26 15:41:37;;;;;;;13.30;7.23;;;29.70;99.90;;;;;;4991764;28;20574;-84
2022/08/26 15:44:06;;;;;;;15.90;7.63;;;29.70;99.90;;;;;;4989970;28;20456;-85
2022/08/26 15:46:33;;;;;;;10.37;7.87;;;29.70;99.90;;;;;;4991105;28;20582;-84
2022/08/26 15:49:02;;;;;;;13.50;8.27;;;29.70;99.90;;;;;;4990808;28;20467;-84
2022/08/26 15:51:31;;;;;;;15.00;8.00;;;29.60;99.90;;;;;;4990952;28;20488;-84
2022/08/26 15:53:58;;;;;;;15.73;8.87;;;29.60;99.90;;;;;;4992252;28;20473;-87
2022/08/26 15:56:25;;;;;;;14.10;8.10;;;29.50;99.90;;;;;;4998702;28;20497;-84
2022/08/26 15:58:52;;;;;;;14.40;8.00;;;29.40;99.90;;;;;;5000575;28;20818;-82
2022/08/26 16:01:20;;;;;;;14.47;7.70;;;29.40;99.90;;;;;;4999074;28;20494;-83
2022/08/26 16:03:47;;;;;;;15.40;7.73;;;29.40;99.90;;;;;;4994365;28;20468;-84
2022/08/26 16:06:16;;;;;;;14.80;7.80;;;29.40;99.90;;;;;;4992768;28;20491;-83
2022/08/26 16:08:44;;;;;;;17.47;9.30;;;29.30;99.90;;;;;;4993119;28;20466;-83
2022/08/26 16:11:11;;;;;;;13.50;8.60;;;29.20;99.90;;;;;;4994128;28;20487;-84
2022/08/26 16:13:38;;;;;;;21.40;8.97;;;29.20;99.90;;;;;;4994372;28;20894;-83
2022/08/26 16:16:06;;;;;;;17.13;9.70;;;29.10;99.90;;;;;;4993833;28;20467;-83
2022/08/26 16:18:33;;;;;;;17.70;9.17;;;29.10;99.90;;;;;;4993239;28;20951;-83
2022/08/26 16:21:00;;;;;;;21.83;9.30;;;29.00;99.90;;;;;;4993618;28;20475;-83
2022/08/26 16:23:28;;;;;;;25.67;9.17;;;28.90;99.90;;;;;;4994562;28;20479;-83
2022/08/26 16:25:55;;;;;;;21.00;9.40;;;28.80;99.90;;;;;;4993556;28;20523;-84
2022/08/26 16:28:22;;;;;;;19.30;8.90;;;28.80;99.90;;;;;;4994361;28;20602;-84
2022/08/26 16:30:50;;;;;;;17.47;7.90;;;28.70;99.90;;;;;;4993753;28;20918;-83
2022/08/26 16:33:17;;;;;;;16.07;8.60;;;28.70;99.90;;;;;;4993481;28;20460;-83
2022/08/26 16:35:45;;;;;;;19.37;6.63;;;28.50;99.90;;;;;;4991933;28;20563;-85
2022/08/26 16:38:12;;;;;;;24.13;6.10;;;28.10;99.90;;;;;;4990931;28;20468;-83
2022/08/26 16:40:40;;;;;;;11.63;6.37;;;27.60;99.90;;;;;;4992084;28;20486;-84
2022/08/26 16:43:07;;;;;;;17.97;7.70;;;27.30;99.90;;;;;;4991582;28;20920;-84
2022/08/26 16:45:36;;;;;;;20.73;7.30;;;26.70;99.90;;;;;;4990770;28;20531;-83
2022/08/26 16:48:04;;;;;;;15.10;7.87;;;26.00;99.90;;;;;;4991512;28;20488;-83
2022/08/26 16:50:32;;;;;;;19.93;8.40;;;25.20;99.90;;;;;;4991323;28;20455;-82
2022/08/26 16:52:59;;;;;;;17.90;9.07;;;24.70;99.90;;;;;;4992413;28;20470;-84